Time;durP1;ratioP1;P1;durP2;ratioP2;P2;SDS_P1;SDS_P2;PMS_P1;PMS_P2;Temp;Humidity;BMP_temperature;BMP_pressure;BME280_temperature;BME280_humidity;BME280_pressure;Samples;Min_cycle;Max_cycle;Signal;HPM_P1;HPM_P2
2022/04/21 00:02:18;;;;;;;7.60;4.70;;;9.70;99.90;;;;;;4998176;28;20052;-62
2022/04/21 00:04:44;;;;;;;9.13;4.80;;;9.60;99.90;;;;;;5032740;28;20087;-63
2022/04/21 00:07:09;;;;;;;7.25;4.43;;;9.50;99.90;;;;;;5018370;28;20041;-62
2022/04/21 00:09:35;;;;;;;7.72;4.75;;;9.50;99.90;;;;;;5018106;28;20048;-62
2022/04/21 00:12:01;;;;;;;8.48;5.20;;;9.40;99.90;;;;;;5017533;28;20037;-62
2022/04/21 00:14:26;;;;;;;8.80;5.13;;;9.30;99.90;;;;;;5019451;28;20070;-62
2022/04/21 00:16:54;;;;;;;9.43;4.95;;;9.50;99.90;;;;;;4998624;28;20046;-62
2022/04/21 00:19:20;;;;;;;9.23;4.88;;;9.40;99.90;;;;;;4998213;28;20042;-62
2022/04/21 00:24:29;;;;;;;8.10;5.20;;;9.40;99.90;;;;;;5030456;28;20042;-61
2022/04/21 00:26:55;;;;;;;9.25;4.82;;;9.30;99.90;;;;;;5035266;28;20485;-62
2022/04/21 00:29:20;;;;;;;8.07;4.53;;;9.30;99.90;;;;;;5017541;28;20037;-62
2022/04/21 00:31:46;;;;;;;8.52;5.40;;;9.40;99.90;;;;;;5017421;28;20045;-63
2022/04/21 00:34:13;;;;;;;8.45;5.05;;;9.40;99.90;;;;;;5004482;28;20045;-63
2022/04/21 00:36:39;;;;;;;7.63;4.75;;;9.30;99.90;;;;;;4997410;28;20050;-63
2022/04/21 00:39:04;;;;;;;7.97;5.13;;;9.30;99.90;;;;;;4997571;28;20187;-62
2022/04/21 00:41:30;;;;;;;8.00;4.97;;;9.30;99.90;;;;;;4997990;28;20038;-63
2022/04/21 00:43:56;;;;;;;9.02;5.10;;;9.40;99.90;;;;;;5007334;28;20124;-62
2022/04/21 00:46:22;;;;;;;7.90;5.13;;;9.20;99.90;;;;;;5016668;28;20085;-62
2022/04/21 00:48:49;;;;;;;9.88;5.32;;;9.10;99.90;;;;;;5017095;28;20042;-62
2022/04/21 00:51:15;;;;;;;8.00;5.50;;;9.10;99.90;;;;;;5034520;28;20037;-64
2022/04/21 00:53:42;;;;;;;10.02;5.80;;;9.10;99.90;;;;;;5015822;28;20044;-62
2022/04/21 00:56:09;;;;;;;9.40;5.80;;;9.10;99.90;;;;;;5017488;28;20052;-62
2022/04/21 00:58:37;;;;;;;7.75;5.53;;;9.00;99.90;;;;;;5035353;28;20072;-62
2022/04/21 01:01:03;;;;;;;12.25;6.35;;;8.90;99.90;;;;;;5017246;28;20033;-63
2022/04/21 01:03:30;;;;;;;11.40;5.97;;;8.90;99.90;;;;;;5010870;28;20091;-62
2022/04/21 01:05:56;;;;;;;9.32;6.38;;;8.90;99.90;;;;;;4997657;28;20046;-62
2022/04/21 01:08:21;;;;;;;8.70;6.30;;;8.80;99.90;;;;;;5015339;28;20422;-62
2022/04/21 01:10:49;;;;;;;9.77;6.10;;;8.90;99.90;;;;;;5015265;28;20124;-63
2022/04/21 01:13:16;;;;;;;8.77;5.60;;;8.80;99.90;;;;;;4985843;28;20045;-63
2022/04/21 01:15:41;;;;;;;9.40;6.03;;;8.70;99.90;;;;;;5017181;28;20120;-64
2022/04/21 01:18:07;;;;;;;8.35;5.57;;;8.70;99.90;;;;;;5017256;28;20132;-63
2022/04/21 01:20:33;;;;;;;9.55;5.70;;;8.90;99.90;;;;;;5017507;28;20080;-63
2022/04/21 01:22:59;;;;;;;9.20;5.60;;;8.80;99.90;;;;;;4998586;28;20049;-63
2022/04/21 01:25:25;;;;;;;8.68;5.45;;;8.80;99.90;;;;;;4997027;28;20045;-63
2022/04/21 01:27:56;;;;;;;8.63;6.30;;;8.80;99.90;;;;;;4981389;28;20451;-62
2022/04/21 01:30:22;;;;;;;10.07;5.97;;;8.80;99.90;;;;;;4997608;28;20530;-63
2022/04/21 01:32:51;;;;;;;10.93;6.07;;;8.70;99.90;;;;;;4997384;28;20120;-63
2022/04/21 01:35:17;;;;;;;9.75;6.28;;;8.70;99.90;;;;;;5017051;28;20052;-63
2022/04/21 01:43:11;;;;;;;8.85;5.90;;;8.50;99.90;;;;;;5013367;28;20507;-63
2022/04/21 01:45:37;;;;;;;8.50;5.72;;;8.60;99.90;;;;;;5006002;28;20064;-62
2022/04/21 01:48:04;;;;;;;11.15;6.32;;;8.50;99.90;;;;;;5016690;28;20386;-63
2022/04/21 01:50:30;;;;;;;8.15;5.93;;;8.60;99.90;;;;;;5016856;28;20480;-62
2022/04/21 01:52:58;;;;;;;8.73;5.68;;;8.60;99.90;;;;;;5016610;28;20053;-62
2022/04/21 01:55:25;;;;;;;7.15;5.15;;;8.50;99.90;;;;;;5016508;28;20128;-63
2022/04/21 01:57:50;;;;;;;8.65;5.80;;;8.50;99.90;;;;;;5033686;28;20049;-62
2022/04/21 02:00:16;;;;;;;9.73;6.03;;;8.60;99.90;;;;;;5016983;28;20030;-64
2022/04/21 02:02:42;;;;;;;9.60;5.75;;;8.60;99.90;;;;;;5016415;28;20493;-63
2022/04/21 02:05:08;;;;;;;8.77;5.93;;;8.50;99.90;;;;;;5016070;28;20065;-62
2022/04/21 02:07:34;;;;;;;10.18;5.97;;;8.50;99.90;;;;;;5016886;28;20037;-62
2022/04/21 02:09:59;;;;;;;11.82;6.47;;;8.50;99.90;;;;;;5016424;28;20348;-62
2022/04/21 02:12:28;;;;;;;10.13;7.10;;;8.30;99.90;;;;;;5016618;28;20049;-62
2022/04/21 02:14:53;;;;;;;10.48;8.00;;;8.20;99.90;;;;;;5016013;28;20042;-62
2022/04/21 02:17:19;;;;;;;12.18;8.50;;;8.20;99.90;;;;;;5013640;28;20099;-63
2022/04/21 02:19:46;;;;;;;11.38;7.95;;;8.20;99.90;;;;;;4996419;28;20097;-63
2022/04/21 02:22:12;;;;;;;10.68;6.90;;;8.20;99.90;;;;;;5014181;28;20180;-62
2022/04/21 02:24:37;;;;;;;10.23;6.80;;;8.20;99.90;;;;;;4980695;28;20442;-62
2022/04/21 02:27:04;;;;;;;8.38;6.57;;;8.20;99.90;;;;;;4997046;28;20042;-64
2022/04/21 02:29:29;;;;;;;9.70;6.63;;;8.20;99.90;;;;;;4980830;28;20489;-62
2022/04/21 02:31:55;;;;;;;11.32;6.63;;;8.20;99.90;;;;;;4996330;28;20088;-64
2022/04/21 02:34:20;;;;;;;10.05;6.70;;;8.10;99.90;;;;;;5008831;28;20049;-63
2022/04/21 02:36:46;;;;;;;10.00;6.47;;;8.20;99.90;;;;;;5016190;28;20107;-63
2022/04/21 02:39:12;;;;;;;10.48;6.00;;;8.20;99.90;;;;;;5000030;28;20042;-61
2022/04/21 02:41:37;;;;;;;8.88;6.05;;;8.10;99.90;;;;;;5016500;28;20120;-62
2022/04/21 02:44:04;;;;;;;9.45;6.32;;;8.20;99.90;;;;;;5005449;28;20038;-63
2022/04/21 02:46:32;;;;;;;10.43;6.75;;;8.10;99.90;;;;;;4996085;28;20089;-62
2022/04/21 02:49:00;;;;;;;9.00;6.47;;;8.10;99.90;;;;;;5014049;28;20060;-63
2022/04/21 02:51:27;;;;;;;10.50;6.38;;;8.10;99.90;;;;;;5013863;28;20042;-62
2022/04/21 02:59:22;;;;;;;;;;;7.90;99.90;;;;;;5014230;28;20041;-65
2022/04/21 03:01:48;;;;;;;13.95;6.78;;;7.90;99.90;;;;;;4980012;28;19924;-63
2022/04/21 03:04:13;;;;;;;9.23;6.20;;;7.80;99.90;;;;;;5013107;28;20038;-64
2022/04/21 03:06:39;;;;;;;9.70;6.90;;;7.80;99.90;;;;;;4996388;28;20046;-62
2022/04/21 03:09:04;;;;;;;10.15;7.10;;;7.70;99.90;;;;;;4997013;28;20100;-63
2022/04/21 03:11:30;;;;;;;10.88;7.15;;;7.70;99.90;;;;;;5013713;28;20293;-62
2022/04/21 03:13:56;;;;;;;9.00;6.18;;;7.70;99.90;;;;;;4996086;28;20505;-62
2022/04/21 03:16:21;;;;;;;9.93;7.43;;;7.70;99.90;;;;;;4996121;28;20041;-62
2022/04/21 03:18:47;;;;;;;12.70;7.60;;;7.50;99.90;;;;;;4996634;28;20112;-62
2022/04/21 03:26:41;;;;;;;10.88;7.40;;;7.40;99.90;;;;;;4999911;28;20041;-62
2022/04/21 03:29:06;;;;;;;11.30;7.40;;;7.50;99.90;;;;;;4999596;28;20393;-62
2022/04/21 03:31:32;;;;;;;10.80;7.30;;;7.50;99.90;;;;;;4999832;28;20042;-62
2022/04/21 03:33:58;;;;;;;12.35;7.90;;;7.50;99.90;;;;;;4999033;28;20046;-63
2022/04/21 03:36:23;;;;;;;11.27;7.93;;;7.50;99.90;;;;;;5016968;28;20088;-63
2022/04/21 03:38:49;;;;;;;12.85;7.90;;;7.50;99.90;;;;;;5016845;28;20046;-63
2022/04/21 03:41:15;;;;;;;10.88;8.05;;;7.50;99.90;;;;;;4999558;28;20074;-64
2022/04/21 03:43:40;;;;;;;11.95;8.25;;;7.50;99.90;;;;;;4999096;28;20065;-62
2022/04/21 03:46:06;;;;;;;11.73;8.48;;;7.40;99.90;;;;;;5029605;28;20053;-62
2022/04/21 03:48:31;;;;;;;12.45;9.20;;;7.40;99.90;;;;;;5036492;28;20056;-62
2022/04/21 03:50:57;;;;;;;12.50;9.27;;;7.40;99.90;;;;;;5019009;28;20144;-63
2022/04/21 03:53:23;;;;;;;12.50;8.65;;;7.30;99.90;;;;;;5018267;28;20068;-64
2022/04/21 03:55:49;;;;;;;11.32;8.52;;;7.20;99.90;;;;;;5036487;28;20046;-62
2022/04/21 03:58:15;;;;;;;14.68;9.32;;;7.10;99.90;;;;;;5036247;28;20445;-63
2022/04/21 04:00:40;;;;;;;11.57;9.13;;;7.10;99.90;;;;;;5018975;28;20049;-64
2022/04/21 04:03:06;;;;;;;15.57;9.45;;;7.20;99.90;;;;;;5036143;28;20041;-62
2022/04/21 04:05:32;;;;;;;13.15;9.90;;;7.20;99.90;;;;;;5036094;28;20040;-62
2022/04/21 04:10:54;;;;;;;13.37;9.80;;;7.00;99.90;;;;;;5036273;28;20069;-62
2022/04/21 04:13:21;;;;;;;14.70;10.07;;;7.00;99.90;;;;;;5017912;28;20288;-62
2022/04/21 04:15:49;;;;;;;16.35;9.98;;;7.10;99.90;;;;;;5002788;28;20042;-63
2022/04/21 04:18:16;;;;;;;12.95;10.15;;;7.00;99.90;;;;;;5018484;28;20049;-64
2022/04/21 04:20:42;;;;;;;14.55;9.82;;;6.90;99.90;;;;;;5036025;28;20346;-62
2022/04/21 04:23:08;;;;;;;13.65;10.10;;;6.90;99.90;;;;;;5035725;28;20037;-63
2022/04/21 04:25:35;;;;;;;14.82;10.30;;;6.90;99.90;;;;;;5018103;28;20208;-63
2022/04/21 04:28:03;;;;;;;12.50;9.20;;;6.80;99.90;;;;;;5018414;28;20401;-62
2022/04/21 04:30:29;;;;;;;15.52;9.90;;;6.80;99.90;;;;;;5035911;28;20033;-63
2022/04/21 04:32:54;;;;;;;13.05;10.43;;;6.80;99.90;;;;;;5018220;28;20433;-62
2022/04/21 04:35:21;;;;;;;13.05;9.25;;;6.80;99.90;;;;;;5017435;28;20037;-62
2022/04/21 04:37:47;;;;;;;15.18;9.30;;;6.90;99.90;;;;;;5017685;28;20497;-63
2022/04/21 04:40:13;;;;;;;15.02;10.00;;;7.00;99.90;;;;;;5035423;28;20041;-61
2022/04/21 04:42:39;;;;;;;12.45;9.35;;;7.10;99.90;;;;;;5017971;28;20443;-63
2022/04/21 04:47:49;;;;;;;14.25;9.82;;;7.10;99.90;;;;;;5035178;28;20461;-62
2022/04/21 04:50:15;;;;;;;11.98;8.80;;;7.10;99.90;;;;;;5017805;28;20128;-64
2022/04/21 04:52:40;;;;;;;12.77;9.20;;;7.20;99.90;;;;;;5017790;28;20083;-64
2022/04/21 04:55:11;;;;;;;15.77;9.23;;;7.20;99.90;;;;;;5034347;28;20049;-62
2022/04/21 04:57:38;;;;;;;16.40;9.40;;;7.10;99.90;;;;;;5033092;28;20037;-62
2022/04/21 05:00:05;;;;;;;15.25;10.05;;;7.00;99.90;;;;;;5003475;28;20076;-63
2022/04/21 05:02:31;;;;;;;15.23;10.10;;;7.00;99.90;;;;;;5029676;28;20037;-63
2022/04/21 05:04:57;;;;;;;15.23;10.23;;;7.00;99.90;;;;;;5023001;28;20087;-62
2022/04/21 05:07:24;;;;;;;14.40;10.23;;;7.10;99.90;;;;;;5033621;28;20037;-66
2022/04/21 05:09:49;;;;;;;12.55;10.05;;;7.10;99.90;;;;;;5033752;28;20466;-63
2022/04/21 05:12:15;;;;;;;15.50;11.48;;;7.10;99.90;;;;;;5034049;28;20099;-63
2022/04/21 05:14:40;;;;;;;14.40;11.20;;;7.30;99.90;;;;;;5030394;28;20041;-65
2022/04/21 05:17:06;;;;;;;15.65;11.00;;;7.20;99.90;;;;;;5033485;28;20113;-62
2022/04/21 05:19:32;;;;;;;13.80;10.68;;;7.30;99.90;;;;;;5034617;28;20049;-63
2022/04/21 05:22:03;;;;;;;12.68;10.02;;;7.40;99.90;;;;;;5031929;28;20525;-62
2022/04/21 05:24:31;;;;;;;14.77;10.43;;;7.70;99.90;;;;;;5030435;28;20052;-63
2022/04/21 05:26:57;;;;;;;13.98;11.27;;;8.00;99.90;;;;;;5034229;28;20466;-62
2022/04/21 05:32:08;;;;;;;13.90;9.82;;;8.40;99.90;;;;;;5032372;28;20099;-63
2022/04/21 05:34:34;;;;;;;14.30;9.52;;;8.50;99.90;;;;;;5026741;28;20094;-63
2022/04/21 05:37:02;;;;;;;12.48;8.95;;;8.60;99.90;;;;;;5017518;28;20459;-62
2022/04/21 05:39:29;;;;;;;12.77;9.25;;;8.90;99.90;;;;;;5033430;28;20049;-62
2022/04/21 05:41:55;;;;;;;10.52;8.50;;;9.30;99.90;;;;;;5033376;28;20370;-62
2022/04/21 05:44:21;;;;;;;11.90;9.00;;;10.00;99.90;;;;;;5024439;28;20091;-62
2022/04/21 05:46:47;;;;;;;11.57;9.13;;;10.40;99.90;;;;;;5011863;28;20058;-65
2022/04/21 05:49:13;;;;;;;12.60;9.07;;;10.80;99.90;;;;;;5010379;28;20068;-65
2022/04/21 05:51:41;;;;;;;11.93;8.82;;;11.20;99.90;;;;;;5012709;28;20054;-66
2022/04/21 05:54:10;;;;;;;12.02;9.18;;;11.50;99.90;;;;;;5023353;28;20525;-66
2022/04/21 05:56:36;;;;;;;12.38;7.75;;;11.90;99.90;;;;;;5016642;28;20080;-66
2022/04/21 05:59:01;;;;;;;13.90;8.82;;;12.10;99.90;;;;;;5020629;28;20041;-67
2022/04/21 06:01:27;;;;;;;11.45;8.60;;;12.30;99.90;;;;;;5013281;28;20372;-67
2022/04/21 06:03:53;;;;;;;11.48;7.55;;;12.60;99.90;;;;;;5020752;28;20033;-63
2022/04/21 06:06:19;;;;;;;10.82;7.55;;;13.00;99.90;;;;;;5034612;28;20120;-63
2022/04/21 06:08:45;;;;;;;9.63;7.72;;;13.20;99.90;;;;;;5012094;28;20041;-64
2022/04/21 06:11:14;;;;;;;12.15;6.72;;;13.00;99.90;;;;;;5013788;28;20044;-61
2022/04/21 06:13:41;;;;;;;11.43;7.70;;;13.20;99.90;;;;;;5026471;28;20030;-63
2022/04/21 06:16:07;;;;;;;11.10;7.43;;;13.50;99.90;;;;;;5014330;28;20041;-63
2022/04/21 06:18:33;;;;;;;10.32;7.43;;;14.00;99.90;;;;;;4995434;28;20049;-64
2022/04/21 06:20:59;;;;;;;11.27;7.53;;;14.20;99.90;;;;;;5013948;28;20033;-62
2022/04/21 06:23:24;;;;;;;8.80;6.43;;;14.00;99.90;;;;;;4996789;28;20056;-64
2022/04/21 06:25:58;;;;;;;9.20;6.90;;;14.30;99.90;;;;;;5014213;28;20465;-63
2022/04/21 06:28:27;;;;;;;9.77;6.82;;;14.50;99.90;;;;;;5014205;28;20041;-64
2022/04/21 06:30:53;;;;;;;9.02;6.18;;;14.60;99.90;;;;;;5014077;28;20069;-64
2022/04/21 06:33:18;;;;;;;10.50;6.90;;;14.60;99.90;;;;;;5015948;28;20427;-64
2022/04/21 06:35:47;;;;;;;10.65;7.13;;;14.60;99.80;;;;;;5015541;28;20038;-63
2022/04/21 06:38:13;;;;;;;11.30;7.20;;;14.30;99.90;;;;;;5013884;28;20048;-64
2022/04/21 06:40:39;;;;;;;9.68;7.22;;;14.50;99.90;;;;;;4996638;28;20052;-64
2022/04/21 06:48:34;;;;;;;9.63;6.10;;;14.50;99.80;;;;;;5033860;28;19999;-65
2022/04/21 06:51:00;;;;;;;7.85;5.78;;;14.60;99.60;;;;;;5033519;28;20280;-64
2022/04/21 06:53:25;;;;;;;10.88;5.90;;;14.90;98.70;;;;;;5015296;28;20136;-63
2022/04/21 06:55:51;;;;;;;9.40;6.00;;;15.20;98.50;;;;;;5033780;28;20091;-65
2022/04/21 06:58:23;;;;;;;9.20;5.53;;;14.80;98.90;;;;;;4999602;28;20037;-65
2022/04/21 07:00:48;;;;;;;9.18;5.57;;;14.80;98.70;;;;;;5019890;28;20477;-65
2022/04/21 07:03:14;;;;;;;8.65;5.30;;;14.90;98.30;;;;;;5019092;28;20045;-65
2022/04/21 07:05:40;;;;;;;7.35;4.90;;;14.70;98.70;;;;;;5037117;28;20067;-65
2022/04/21 07:08:07;;;;;;;9.10;5.30;;;14.90;97.90;;;;;;5036000;28;20044;-64
2022/04/21 07:10:34;;;;;;;6.10;4.10;;;14.90;98.20;;;;;;5036872;28;20037;-66
2022/04/21 07:13:07;;;;;;;8.30;4.95;;;15.50;96.10;;;;;;5036709;28;20049;-64
2022/04/21 07:15:32;;;;;;;8.57;5.22;;;15.00;97.40;;;;;;5017705;28;20049;-67
2022/04/21 07:17:58;;;;;;;8.80;4.85;;;14.80;97.00;;;;;;5017331;28;20037;-64
2022/04/21 07:20:23;;;;;;;6.93;4.78;;;14.90;96.90;;;;;;4999745;28;20050;-65
2022/04/21 07:22:49;;;;;;;7.35;4.43;;;14.90;97.10;;;;;;5021041;28;20037;-65
2022/04/21 07:25:15;;;;;;;7.13;4.30;;;14.50;96.90;;;;;;5035244;28;20071;-66
2022/04/21 07:27:40;;;;;;;8.75;5.03;;;14.40;97.40;;;;;;5018374;28;20033;-65
2022/04/21 07:30:08;;;;;;;6.88;4.30;;;14.30;97.40;;;;;;5022839;28;20041;-64
2022/04/21 07:32:34;;;;;;;6.78;3.63;;;14.40;97.10;;;;;;5036412;28;20045;-65
2022/04/21 07:35:00;;;;;;;7.60;4.07;;;14.30;96.80;;;;;;5036802;28;20469;-64
2022/04/21 07:37:26;;;;;;;11.05;4.40;;;13.90;97.40;;;;;;5036730;28;20096;-64
2022/04/21 07:39:52;;;;;;;7.47;4.10;;;13.60;98.00;;;;;;5036710;28;20455;-64
2022/04/21 07:42:17;;;;;;;5.45;3.58;;;13.70;98.30;;;;;;5036684;28;20346;-64
2022/04/21 07:44:43;;;;;;;7.70;4.07;;;13.90;97.20;;;;;;5018109;28;20034;-64
2022/04/21 07:47:09;;;;;;;6.38;3.85;;;13.70;97.50;;;;;;5019030;28;20057;-65
2022/04/21 07:49:47;;;;;;;10.20;4.22;;;13.70;97.60;;;;;;5036441;28;20095;-64
2022/04/21 07:55:07;;;;;;;6.00;3.70;;;13.80;97.50;;;;;;5036310;28;20049;-64
2022/04/21 07:57:33;;;;;;;6.50;3.40;;;13.90;97.50;;;;;;5002699;28;20056;-64
2022/04/21 07:59:58;;;;;;;5.07;3.60;;;14.00;97.20;;;;;;5036210;28;20045;-63
2022/04/21 08:02:24;;;;;;;4.47;3.20;;;14.00;97.10;;;;;;5035673;28;20160;-64
2022/04/21 08:04:50;;;;;;;5.78;3.05;;;14.10;97.40;;;;;;5035200;28;20060;-63
2022/04/21 08:07:16;;;;;;;4.60;3.40;;;14.30;95.90;;;;;;5035870;28;20065;-64
2022/04/21 08:09:42;;;;;;;4.88;3.08;;;14.30;96.10;;;;;;5018035;28;20413;-63
2022/04/21 08:12:08;;;;;;;4.53;2.60;;;14.10;96.10;;;;;;5018826;28;20129;-63
2022/04/21 08:14:35;;;;;;;5.75;2.90;;;14.10;96.20;;;;;;5035765;28;20257;-64
2022/04/21 08:17:02;;;;;;;6.10;2.97;;;14.10;95.40;;;;;;5035815;28;20076;-63
2022/04/21 08:19:27;;;;;;;5.85;3.13;;;14.20;95.70;;;;;;5036063;28;20045;-64
2022/04/21 08:21:53;;;;;;;10.07;3.58;;;14.30;95.70;;;;;;5018270;28;20075;-64
2022/04/21 08:32:37;;;;;;;5.30;3.15;;;14.60;95.10;;;;;;5035623;28;20045;-65
2022/04/21 08:35:06;;;;;;;4.88;2.60;;;14.90;94.70;;;;;;5035640;28;20045;-64
2022/04/21 08:37:35;;;;;;;6.88;2.60;;;14.90;94.80;;;;;;5036043;28;20044;-64
2022/04/21 08:40:01;;;;;;;6.07;2.70;;;15.00;94.70;;;;;;5001744;28;20132;-63
2022/04/21 08:42:30;;;;;;;5.75;2.45;;;15.20;93.80;;;;;;5035376;28;20044;-64
2022/04/21 08:44:57;;;;;;;7.07;2.80;;;15.40;93.40;;;;;;5017397;28;20053;-64
2022/04/21 08:47:27;;;;;;;5.50;2.60;;;15.30;93.90;;;;;;5017561;28;20076;-64
2022/04/21 08:49:59;;;;;;;5.40;2.80;;;15.40;93.70;;;;;;5017781;28;20513;-65
2022/04/21 08:52:25;;;;;;;5.30;3.13;;;15.50;93.10;;;;;;5017394;28;20099;-64
2022/04/21 08:54:51;;;;;;;6.50;2.88;;;15.50;93.50;;;;;;5035137;28;20037;-64
2022/04/21 08:57:17;;;;;;;3.75;2.63;;;15.60;93.30;;;;;;5017850;28;20046;-64
2022/04/21 08:59:43;;;;;;;4.40;2.65;;;15.50;92.70;;;;;;5035088;28;20057;-65
2022/04/21 09:02:08;;;;;;;6.90;3.28;;;15.30;93.20;;;;;;5035296;28;20112;-66
2022/04/21 09:04:34;;;;;;;5.13;2.88;;;15.20;93.40;;;;;;5034951;28;20053;-64
2022/04/21 09:07:20;;;;;;;5.07;3.45;;;15.20;94.20;;;;;;5035396;28;20092;-64
2022/04/21 09:10:00;;;;;;;6.65;3.03;;;15.30;93.80;;;;;;5035311;28;20073;-64
2022/04/21 09:12:25;;;;;;;4.95;3.05;;;15.40;93.90;;;;;;5017181;28;20046;-64
2022/04/21 09:14:51;;;;;;;6.25;3.05;;;15.50;93.70;;;;;;5016800;28;20051;-64
2022/04/21 09:17:16;;;;;;;6.22;2.80;;;15.50;93.70;;;;;;5034989;28;20033;-64
2022/04/21 09:20:04;;;;;;;8.27;3.22;;;15.60;93.50;;;;;;5033947;28;20056;-63
2022/04/21 09:22:34;;;;;;;4.53;2.60;;;15.70;93.50;;;;;;5015668;28;20053;-64
2022/04/21 09:25:00;;;;;;;8.10;2.53;;;15.80;92.60;;;;;;5034975;28;20045;-66
2022/04/21 09:27:43;;;;;;;4.70;2.90;;;15.70;93.20;;;;;;5017736;28;20038;-64
2022/04/21 09:30:10;;;;;;;5.57;3.10;;;15.80;93.00;;;;;;5034785;28;20046;-65
2022/04/21 09:32:51;;;;;;;5.28;3.00;;;15.90;93.10;;;;;;5016774;28;20045;-64
2022/04/21 09:35:18;;;;;;;7.35;2.92;;;16.00;92.30;;;;;;5034513;28;20124;-64
2022/04/21 09:37:57;;;;;;;3.33;2.40;;;16.00;93.00;;;;;;5017461;28;20079;-64
2022/04/21 09:40:28;;;;;;;6.85;2.90;;;16.20;91.90;;;;;;5000645;28;20045;-64
2022/04/21 09:42:59;;;;;;;6.72;2.90;;;16.30;91.60;;;;;;5033682;28;20371;-64
2022/04/21 09:48:23;;;;;;;9.07;3.25;;;16.30;91.80;;;;;;5016960;28;20068;-63
2022/04/21 09:50:53;;;;;;;5.10;2.67;;;16.50;92.00;;;;;;5034507;28;20049;-64
2022/04/21 09:53:23;;;;;;;5.55;2.80;;;16.50;91.60;;;;;;5033837;28;20073;-64
2022/04/21 09:56:09;;;;;;;3.95;2.30;;;16.50;91.20;;;;;;5016920;28;20454;-64
2022/04/21 09:58:39;;;;;;;6.45;2.80;;;16.40;90.60;;;;;;5034362;28;20120;-64
2022/04/21 10:01:05;;;;;;;5.18;2.55;;;16.50;91.00;;;;;;5016521;28;20382;-64
2022/04/21 10:03:34;;;;;;;10.75;2.70;;;16.60;90.50;;;;;;5016553;28;20095;-64
2022/04/21 10:06:04;;;;;;;5.70;2.78;;;16.40;90.30;;;;;;5000460;28;20456;-64
2022/04/21 10:08:30;;;;;;;7.03;2.65;;;16.50;90.20;;;;;;5000542;28;20450;-65
2022/04/21 10:10:56;;;;;;;5.38;2.88;;;16.50;90.30;;;;;;5034026;28;20096;-64
2022/04/21 10:13:23;;;;;;;5.70;2.70;;;16.70;90.80;;;;;;5016005;28;20068;-65
2022/04/21 10:15:51;;;;;;;8.00;2.80;;;17.00;90.50;;;;;;5033860;28;20042;-65
2022/04/21 10:18:18;;;;;;;4.35;2.95;;;17.10;90.10;;;;;;5033352;28;20374;-64
2022/04/21 10:20:45;;;;;;;4.85;2.60;;;16.90;89.10;;;;;;5034114;28;20033;-64
2022/04/21 10:23:16;;;;;;;4.47;2.70;;;17.20;87.90;;;;;;5033543;28;20105;-65
2022/04/21 10:25:45;;;;;;;5.47;2.58;;;17.00;87.60;;;;;;5033742;28;20117;-64
2022/04/21 10:28:42;;;;;;;3.55;2.30;;;16.90;87.60;;;;;;5033773;28;20131;-64
2022/04/21 10:31:31;;;;;;;4.13;2.08;;;17.00;87.80;;;;;;5033266;28;20037;-64
2022/04/21 10:34:06;;;;;;;5.15;2.47;;;17.10;86.60;;;;;;5035665;28;20045;-65
2022/04/21 10:36:47;;;;;;;7.97;2.72;;;17.10;85.80;;;;;;5038253;28;20041;-65
2022/04/21 10:39:25;;;;;;;3.00;2.10;;;17.10;85.00;;;;;;5037456;28;20386;-64
2022/04/21 10:42:14;;;;;;;4.50;2.28;;;17.20;83.60;;;;;;5037782;28;20042;-65
2022/04/21 10:44:46;;;;;;;4.03;2.40;;;17.20;84.70;;;;;;5011826;28;20144;-64
2022/04/21 10:47:33;;;;;;;3.90;2.17;;;17.30;84.80;;;;;;5019804;28;20459;-64
2022/04/21 10:50:02;;;;;;;3.30;2.22;;;17.40;84.90;;;;;;5017045;28;20050;-64
2022/04/21 10:57:50;;;;;;;3.83;2.42;;;17.60;84.50;;;;;;5037419;28;20052;-64
2022/04/21 11:00:28;;;;;;;5.32;3.22;;;17.80;85.00;;;;;;5033047;28;20073;-65
2022/04/21 11:03:05;;;;;;;6.85;2.65;;;17.70;84.30;;;;;;5035068;28;20077;-64
2022/04/21 11:05:35;;;;;;;4.18;2.40;;;17.70;84.60;;;;;;5032591;28;20064;-65
2022/04/21 11:08:03;;;;;;;4.80;2.70;;;17.80;84.80;;;;;;5036566;28;20042;-64
2022/04/21 11:10:38;;;;;;;3.70;2.58;;;17.60;83.60;;;;;;5036517;28;20073;-66
2022/04/21 11:13:27;;;;;;;9.10;3.83;;;17.80;84.70;;;;;;5036028;28;20060;-65
2022/04/21 11:15:54;;;;;;;5.38;2.40;;;17.90;83.70;;;;;;5027665;28;20099;-64
2022/04/21 11:18:31;;;;;;;4.55;2.40;;;18.00;82.10;;;;;;5031699;28;20148;-64
2022/04/21 11:21:27;;;;;;;5.75;2.13;;;18.10;81.50;;;;;;5035807;28;20048;-65
2022/04/21 11:23:53;;;;;;;5.00;2.70;;;18.20;81.50;;;;;;5031403;28;20033;-64
2022/04/21 11:26:25;;;;;;;3.38;2.28;;;18.30;80.10;;;;;;5036303;28;20351;-64
2022/04/21 11:28:51;;;;;;;6.53;2.70;;;18.20;80.20;;;;;;5035405;28;20038;-64
2022/04/21 11:31:20;;;;;;;7.80;2.40;;;18.10;80.00;;;;;;5035996;28;20037;-65
2022/04/21 11:33:46;;;;;;;3.42;2.20;;;18.00;79.60;;;;;;5025686;28;20045;-64
2022/04/21 11:36:15;;;;;;;6.38;2.50;;;18.00;80.70;;;;;;5035678;28;20470;-64
2022/04/21 11:38:42;;;;;;;3.25;2.05;;;18.00;79.60;;;;;;5036852;28;20037;-64
2022/04/21 11:41:10;;;;;;;4.25;2.40;;;18.20;79.10;;;;;;5036652;28;20352;-65
2022/04/21 11:43:36;;;;;;;6.38;2.70;;;18.30;80.50;;;;;;5024965;28;20107;-64
2022/04/21 11:46:05;;;;;;;3.90;2.15;;;18.40;79.60;;;;;;5018013;28;20061;-64
2022/04/21 11:48:37;;;;;;;8.85;2.80;;;18.50;79.20;;;;;;5036590;28;20120;-64
2022/04/21 11:51:04;;;;;;;5.28;2.30;;;18.70;78.90;;;;;;5019244;28;20041;-64
2022/04/21 11:53:36;;;;;;;3.85;2.38;;;18.70;77.60;;;;;;5018206;28;20049;-66
2022/04/21 11:56:04;;;;;;;5.82;2.35;;;18.40;78.00;;;;;;5018830;28;20041;-64
2022/04/21 11:58:35;;;;;;;5.28;2.40;;;18.50;78.10;;;;;;5019144;28;20056;-65
2022/04/21 12:06:55;;;;;;;6.15;2.60;;;18.70;77.40;;;;;;5035871;28;20473;-65
2022/04/21 12:09:26;;;;;;;5.38;2.67;;;18.90;77.50;;;;;;5036057;28;20045;-64
2022/04/21 12:12:00;;;;;;;5.95;3.00;;;18.80;77.80;;;;;;5036246;28;20048;-64
2022/04/21 12:14:26;;;;;;;4.32;2.85;;;18.80;77.10;;;;;;5036032;28;20045;-64
2022/04/21 12:17:02;;;;;;;5.30;2.80;;;18.80;77.80;;;;;;5018497;28;20053;-63
2022/04/21 12:19:35;;;;;;;5.30;3.35;;;18.70;78.50;;;;;;5036154;28;20132;-64
2022/04/21 12:22:05;;;;;;;6.22;2.70;;;18.70;79.20;;;;;;5035625;28;20055;-64
2022/04/21 12:24:40;;;;;;;4.00;2.70;;;18.70;79.20;;;;;;5035737;28;20037;-63
2022/04/21 12:27:14;;;;;;;4.00;2.65;;;18.70;78.40;;;;;;5035847;28;20034;-64
2022/04/21 12:30:00;;;;;;;9.27;2.83;;;18.80;79.50;;;;;;5018534;28;20079;-64
2022/04/21 12:32:28;;;;;;;4.80;2.85;;;18.80;78.10;;;;;;5018151;28;20042;-64
2022/04/21 12:34:55;;;;;;;5.97;3.20;;;18.80;78.00;;;;;;5025139;28;20037;-64
2022/04/21 12:37:40;;;;;;;6.43;3.25;;;18.50;80.20;;;;;;5035807;28;20099;-64
2022/04/21 12:40:11;;;;;;;4.53;2.75;;;18.40;80.60;;;;;;5035702;28;20130;-63
2022/04/21 12:42:40;;;;;;;5.32;3.20;;;18.40;80.40;;;;;;5035042;28;20030;-64
2022/04/21 12:45:09;;;;;;;4.95;2.72;;;18.60;78.50;;;;;;5035380;28;20053;-66
2022/04/21 12:47:47;;;;;;;5.85;2.78;;;18.60;78.30;;;;;;5035497;28;20115;-64
2022/04/21 12:50:25;;;;;;;5.90;3.10;;;18.60;78.60;;;;;;5018039;28;20492;-64
2022/04/21 12:52:52;;;;;;;6.32;2.88;;;18.60;78.70;;;;;;5035356;28;20041;-63
2022/04/21 12:55:19;;;;;;;5.55;2.53;;;18.60;80.00;;;;;;5035170;28;20060;-66
2022/04/21 12:57:59;;;;;;;5.05;2.67;;;18.80;79.30;;;;;;5017876;28;20053;-66
2022/04/21 13:00:25;;;;;;;3.95;2.63;;;18.70;79.30;;;;;;5017765;28;20049;-64
2022/04/21 13:02:51;;;;;;;5.40;3.30;;;18.80;79.30;;;;;;5034837;28;20044;-65
2022/04/21 13:05:16;;;;;;;4.50;2.63;;;18.70;78.00;;;;;;5017556;28;20402;-64
2022/04/21 13:07:42;;;;;;;6.55;3.00;;;18.80;79.20;;;;;;5017764;28;20088;-64
2022/04/21 13:10:08;;;;;;;5.97;2.70;;;18.90;79.50;;;;;;5017544;28;20041;-65
2022/04/21 13:12:33;;;;;;;6.60;2.97;;;19.00;79.70;;;;;;5034727;28;20049;-65
2022/04/21 13:15:00;;;;;;;6.03;3.33;;;19.30;77.00;;;;;;5034440;28;20139;-64
2022/04/21 13:17:26;;;;;;;7.30;3.10;;;19.20;77.40;;;;;;5034515;28;20128;-64
2022/04/21 13:19:52;;;;;;;5.47;3.08;;;19.20;78.60;;;;;;5017092;28;20129;-65
2022/04/21 13:22:18;;;;;;;5.60;3.30;;;19.10;78.20;;;;;;5016975;28;20047;-64
2022/04/21 13:24:43;;;;;;;7.47;4.35;;;19.10;78.20;;;;;;5034127;28;20112;-63
2022/04/21 13:27:09;;;;;;;4.22;3.10;;;19.10;78.70;;;;;;5034965;28;20038;-63
2022/04/21 13:29:35;;;;;;;6.75;3.65;;;19.00;79.30;;;;;;5034788;28;20354;-64
2022/04/21 13:34:45;;;;;;;6.53;3.25;;;19.20;78.70;;;;;;5005849;28;20058;-65
2022/04/21 13:37:11;;;;;;;6.50;3.60;;;19.20;78.30;;;;;;5014464;28;20447;-64
2022/04/21 13:39:40;;;;;;;8.77;4.25;;;19.10;79.50;;;;;;4996992;28;20145;-63
2022/04/21 13:42:06;;;;;;;5.80;3.65;;;19.00;79.10;;;;;;5015431;28;20048;-64
2022/04/21 13:44:32;;;;;;;7.28;3.92;;;18.90;80.40;;;;;;5034164;28;20038;-65
2022/04/21 13:46:58;;;;;;;6.03;3.33;;;19.00;79.50;;;;;;5033992;28;20116;-65
2022/04/21 13:49:25;;;;;;;7.28;3.45;;;18.70;79.80;;;;;;5016724;28;20060;-65
2022/04/21 13:51:51;;;;;;;6.10;3.50;;;19.00;79.70;;;;;;5033925;28;20049;-65
2022/04/21 13:54:17;;;;;;;7.72;3.20;;;19.00;79.30;;;;;;5034169;28;20111;-66